createdAt,value
2018-06-02T00:01:20.795Z,19.00
2018-06-02T00:03:47.088Z,18.95
2018-06-02T00:06:13.381Z,18.91
2018-06-02T00:08:39.735Z,18.86
2018-06-02T00:11:06.076Z,18.81
2018-06-02T00:13:32.320Z,18.82
2018-06-02T00:15:58.618Z,18.78
2018-06-02T00:18:24.921Z,18.71
2018-06-02T00:20:51.203Z,18.70
2018-06-02T00:23:17.497Z,18.71
2018-06-02T00:25:43.794Z,18.71
2018-06-02T00:28:10.084Z,18.75
2018-06-02T00:30:36.380Z,18.81
2018-06-02T00:33:02.712Z,18.85
2018-06-02T00:35:29.035Z,18.89
2018-06-02T00:37:55.342Z,18.94
2018-06-02T00:40:21.669Z,18.96
2018-06-02T00:42:48.005Z,18.84
2018-06-02T00:45:16.278Z,18.75
2018-06-02T00:47:40.773Z,18.78
2018-06-02T00:50:07.067Z,18.82
2018-06-02T00:52:33.372Z,18.83
2018-06-02T00:54:59.664Z,18.85
2018-06-02T00:57:25.960Z,18.87
2018-06-02T00:59:52.253Z,18.85
2018-06-02T01:02:18.582Z,18.86
2018-06-02T01:04:44.885Z,18.89
2018-06-02T01:07:11.186Z,18.82
2018-06-02T01:09:37.477Z,18.74
2018-06-02T01:12:03.767Z,18.73
2018-06-02T01:14:30.056Z,18.74
2018-06-02T01:16:56.409Z,18.77
2018-06-02T01:19:22.702Z,18.78
2018-06-02T01:21:48.997Z,18.78
2018-06-02T01:24:15.285Z,18.77
2018-06-02T01:26:41.582Z,18.78
2018-06-02T01:29:07.884Z,18.68
2018-06-02T01:31:34.170Z,18.70
2018-06-02T01:34:00.464Z,18.66
2018-06-02T01:36:26.784Z,18.59
2018-06-02T01:38:53.071Z,18.47
2018-06-02T01:41:19.360Z,18.39
2018-06-02T01:43:45.665Z,18.37
2018-06-02T01:46:11.960Z,18.38
2018-06-02T01:48:38.260Z,18.39
2018-06-02T01:51:04.554Z,18.39
2018-06-02T01:53:30.841Z,18.41
2018-06-02T01:55:57.137Z,18.42
2018-06-02T01:58:23.436Z,18.40
2018-06-02T02:00:49.736Z,18.40
2018-06-02T02:03:16.044Z,18.40
2018-06-02T02:05:42.374Z,18.38
2018-06-02T02:08:08.665Z,18.36
2018-06-02T02:10:34.961Z,18.31
2018-06-02T02:13:01.263Z,18.26
2018-06-02T02:15:27.597Z,18.17
2018-06-02T02:17:53.889Z,18.04
2018-06-02T02:20:20.187Z,17.98
2018-06-02T02:22:46.479Z,17.97
2018-06-02T02:25:12.771Z,17.94
2018-06-02T02:27:39.054Z,17.91
2018-06-02T02:30:05.343Z,17.90
2018-06-02T02:32:31.628Z,17.85
2018-06-02T02:34:57.969Z,17.78
2018-06-02T02:37:24.260Z,17.72
2018-06-02T02:39:50.551Z,17.61
2018-06-02T02:42:16.866Z,17.55
2018-06-02T02:44:43.158Z,17.51
2018-06-02T02:47:09.448Z,17.47
2018-06-02T02:49:35.769Z,17.40
2018-06-02T02:52:02.070Z,17.43
2018-06-02T02:54:28.368Z,17.47
2018-06-02T02:56:54.664Z,17.49
2018-06-02T02:59:20.962Z,17.50
2018-06-02T03:01:47.400Z,17.50
2018-06-02T03:04:13.697Z,17.48
2018-06-02T03:06:40.014Z,17.46
2018-06-02T03:09:06.317Z,17.44
2018-06-02T03:11:32.607Z,17.41
2018-06-02T03:13:58.913Z,17.41
2018-06-02T03:16:25.211Z,17.43
2018-06-02T03:18:51.506Z,17.44
2018-06-02T03:21:17.801Z,17.41
2018-06-02T03:23:44.090Z,17.36
2018-06-02T03:26:10.428Z,17.34
2018-06-02T03:28:36.719Z,17.32
2018-06-02T03:31:03.020Z,17.36
2018-06-02T03:33:29.308Z,17.50
2018-06-02T03:35:55.604Z,17.50
2018-06-02T03:38:21.896Z,17.52
2018-06-02T03:40:48.180Z,17.54
2018-06-02T03:43:14.467Z,17.58
2018-06-02T03:45:40.800Z,17.63
2018-06-02T03:48:07.093Z,17.65
2018-06-02T03:50:33.378Z,17.71
2018-06-02T03:52:59.667Z,17.68
2018-06-02T03:55:25.963Z,17.67
2018-06-02T03:57:52.257Z,17.62
2018-06-02T04:00:18.544Z,17.63
2018-06-02T04:02:44.831Z,17.62
2018-06-02T04:05:11.136Z,17.62
2018-06-02T04:07:37.423Z,17.55
2018-06-02T04:10:03.727Z,17.63
2018-06-02T04:12:30.021Z,17.69
2018-06-02T04:14:56.317Z,17.70
2018-06-02T04:17:22.609Z,17.73
2018-06-02T04:19:48.943Z,17.89
2018-06-02T04:22:15.240Z,17.95
2018-06-02T04:24:41.576Z,18.09
2018-06-02T04:27:07.870Z,18.22
2018-06-02T04:29:34.211Z,18.34
2018-06-02T04:32:00.500Z,18.54
2018-06-02T04:34:26.820Z,18.61
2018-06-02T04:36:53.122Z,18.57
2018-06-02T04:39:19.464Z,18.47
2018-06-02T04:41:45.752Z,18.55
2018-06-02T04:44:12.087Z,18.60
2018-06-02T04:46:38.376Z,18.80
2018-06-02T04:49:04.668Z,19.01
2018-06-02T04:51:31.008Z,19.05
2018-06-02T04:53:57.300Z,19.07
2018-06-02T04:56:23.598Z,19.02
2018-06-02T04:58:49.886Z,19.19
2018-06-02T05:01:16.233Z,19.41
2018-06-02T05:03:42.528Z,19.48
2018-06-02T05:06:08.820Z,19.54
2018-06-02T05:08:35.125Z,19.71
2018-06-02T05:11:01.460Z,20.17
2018-06-02T05:13:27.748Z,20.37
2018-06-02T05:15:54.048Z,20.62
2018-06-02T05:18:20.336Z,21.15
2018-06-02T05:20:46.625Z,21.48
2018-06-02T05:23:12.925Z,21.73
2018-06-02T05:25:39.252Z,21.88
2018-06-02T05:28:05.601Z,21.84
2018-06-02T05:30:31.902Z,22.17
2018-06-02T05:32:58.202Z,22.30
2018-06-02T05:35:24.538Z,22.52
2018-06-02T05:37:50.808Z,22.93
2018-06-02T05:40:17.101Z,23.37
2018-06-02T05:42:43.408Z,24.20
2018-06-02T05:45:09.702Z,25.68
2018-06-02T05:47:35.996Z,26.46
2018-06-02T05:50:02.283Z,27.38
2018-06-02T05:52:28.572Z,27.84
2018-06-02T05:54:54.860Z,27.68
2018-06-02T05:57:21.149Z,27.30
2018-06-02T05:59:47.458Z,28.08
2018-06-02T06:02:13.753Z,27.61
2018-06-02T06:04:40.045Z,27.43
2018-06-02T06:07:06.345Z,27.48
2018-06-02T06:09:32.639Z,27.93
2018-06-02T06:11:58.945Z,27.05
2018-06-02T06:14:25.242Z,26.33
2018-06-02T06:16:51.530Z,25.94
2018-06-02T06:19:17.825Z,25.81
2018-06-02T06:21:44.129Z,25.74
2018-06-02T06:24:10.414Z,25.82
2018-06-02T06:26:36.704Z,26.02
2018-06-02T06:29:03.045Z,26.20
2018-06-02T06:31:29.327Z,26.13
2018-06-02T06:33:55.615Z,25.88
2018-06-02T06:36:21.914Z,25.66
2018-06-02T06:38:48.206Z,25.95
2018-06-02T06:41:14.499Z,26.22
2018-06-02T06:43:40.802Z,26.26
2018-06-02T06:46:07.100Z,25.96
2018-06-02T06:48:33.398Z,26.58
2018-06-02T06:50:59.689Z,26.95
2018-06-02T06:53:26.003Z,26.70
2018-06-02T06:55:52.299Z,26.80
2018-06-02T06:58:18.590Z,26.85
2018-06-02T07:00:44.884Z,26.79
2018-06-02T07:03:11.201Z,26.99
2018-06-02T07:05:37.493Z,27.01
2018-06-02T07:08:03.790Z,27.23
2018-06-02T07:10:30.079Z,27.51
2018-06-02T07:12:56.375Z,27.37
2018-06-02T07:15:22.670Z,26.97
2018-06-02T07:17:49.000Z,27.16
2018-06-02T07:20:15.272Z,27.19
2018-06-02T07:22:41.571Z,27.33
2018-06-02T07:25:07.856Z,27.54
2018-06-02T07:27:34.197Z,28.36
2018-06-02T07:30:00.493Z,28.92
2018-06-02T07:32:26.788Z,29.18
2018-06-02T07:34:53.085Z,29.69
2018-06-02T07:37:19.388Z,29.75
2018-06-02T07:39:45.674Z,30.08
2018-06-02T07:42:11.970Z,30.53
2018-06-02T07:44:38.305Z,30.53
2018-06-02T07:47:04.595Z,30.28
2018-06-02T07:49:30.895Z,29.96
2018-06-02T07:51:57.187Z,30.06
2018-06-02T07:54:23.481Z,30.45
2018-06-02T07:56:49.771Z,29.88
2018-06-02T07:59:16.109Z,29.92
2018-06-02T08:01:42.404Z,30.18
2018-06-02T08:04:08.697Z,30.44
2018-06-02T08:06:34.985Z,30.08
2018-06-02T08:09:01.348Z,30.21
2018-06-02T08:11:27.699Z,30.71
2018-06-02T08:13:53.992Z,30.87
2018-06-02T08:16:20.292Z,31.13
2018-06-02T08:18:46.591Z,31.60
2018-06-02T08:21:12.935Z,31.96
2018-06-02T08:23:39.227Z,31.74
2018-06-02T08:26:05.518Z,31.21
2018-06-02T08:28:31.815Z,31.23
2018-06-02T08:30:58.119Z,31.22
2018-06-02T08:33:24.482Z,31.35
2018-06-02T08:35:50.840Z,31.57
2018-06-02T08:38:17.223Z,31.77
2018-06-02T08:40:43.537Z,31.76
2018-06-02T08:43:09.835Z,32.05
2018-06-02T08:45:36.129Z,32.26
2018-06-02T08:48:02.424Z,32.27
2018-06-02T08:50:28.721Z,32.34
2018-06-02T08:52:55.023Z,32.23
2018-06-02T08:55:21.333Z,32.66
2018-06-02T08:57:47.615Z,32.85
2018-06-02T09:00:13.919Z,32.32
2018-06-02T09:02:40.210Z,31.62
2018-06-02T09:05:06.781Z,31.64
2018-06-02T09:07:33.069Z,32.05
2018-06-02T09:09:59.355Z,32.22
2018-06-02T09:12:28.637Z,31.72
2018-06-02T09:14:54.907Z,32.49
2018-06-02T09:17:21.243Z,33.22
2018-06-02T09:19:47.535Z,33.23
2018-06-02T09:22:13.827Z,32.82
2018-06-02T09:24:40.121Z,33.10
2018-06-02T09:27:06.452Z,32.89
2018-06-02T09:29:32.745Z,32.76
2018-06-02T09:32:04.953Z,33.01
2018-06-02T09:34:31.223Z,33.04
2018-06-02T09:36:57.512Z,33.29
2018-06-02T09:39:23.851Z,33.69
2018-06-02T09:41:50.170Z,33.72
2018-06-02T09:44:16.461Z,33.72
2018-06-02T09:46:42.755Z,33.13
2018-06-02T09:49:09.050Z,32.53
2018-06-02T09:51:43.365Z,33.14
2018-06-02T09:54:04.916Z,32.76
2018-06-02T09:56:31.291Z,32.70
2018-06-02T09:58:57.674Z,33.09
2018-06-02T10:01:24.059Z,33.93
2018-06-02T10:03:50.436Z,34.28
2018-06-02T10:06:16.775Z,33.61
2018-06-02T10:08:43.231Z,33.49
2018-06-02T10:11:09.513Z,33.82
2018-06-02T10:13:35.761Z,33.51
2018-06-02T10:16:02.088Z,33.57
2018-06-02T10:18:28.387Z,33.81
2018-06-02T10:20:54.698Z,33.85
2018-06-02T10:23:21.014Z,33.49
2018-06-02T10:25:47.317Z,32.81
2018-06-02T10:28:13.694Z,32.54
2018-06-02T10:30:39.947Z,32.09
2018-06-02T10:33:09.853Z,31.68
2018-06-02T10:35:34.773Z,31.17
2018-06-02T10:38:01.056Z,31.15
2018-06-02T10:40:27.358Z,31.45
2018-06-02T10:42:53.775Z,32.16
2018-06-02T10:45:20.109Z,32.25
2018-06-02T10:47:46.403Z,32.52
2018-06-02T10:50:18.414Z,32.52
2018-06-02T10:52:44.716Z,32.99
2018-06-02T10:55:11.006Z,32.88
2018-06-02T10:57:37.296Z,33.09
2018-06-02T11:00:07.262Z,32.70
2018-06-02T11:02:33.556Z,32.53
2018-06-02T11:04:59.858Z,31.70
2018-06-02T11:07:26.161Z,31.67
2018-06-02T11:09:52.455Z,32.37
2018-06-02T11:12:18.754Z,33.24
2018-06-02T11:14:45.055Z,32.83
2018-06-02T11:17:11.359Z,32.52
2018-06-02T11:19:37.711Z,33.07
2018-06-02T11:22:03.947Z,32.73
2018-06-02T11:24:30.241Z,32.86
2018-06-02T11:26:56.540Z,32.68
2018-06-02T11:29:22.838Z,32.43
2018-06-02T11:31:49.134Z,32.14
2018-06-02T11:34:15.448Z,31.60
2018-06-02T11:36:41.741Z,31.89
2018-06-02T11:39:08.028Z,32.26
2018-06-02T11:41:34.328Z,32.14
2018-06-02T11:44:00.684Z,31.90
2018-06-02T11:46:26.999Z,32.32
2018-06-02T11:48:53.282Z,32.08
2018-06-02T11:51:19.580Z,32.20
2018-06-02T11:53:45.937Z,32.48
2018-06-02T11:56:12.266Z,32.55
2018-06-02T11:58:38.532Z,32.49
2018-06-02T12:01:04.875Z,32.74
2018-06-02T12:03:31.118Z,32.17
2018-06-02T12:05:57.410Z,31.88
2018-06-02T12:08:23.711Z,31.78
2018-06-02T12:10:50.000Z,32.33
2018-06-02T12:13:16.297Z,32.84
2018-06-02T12:15:42.590Z,32.98
2018-06-02T12:18:08.901Z,32.79
2018-06-02T12:20:35.194Z,32.19
2018-06-02T12:23:01.494Z,32.18
2018-06-02T12:25:27.789Z,32.27
2018-06-02T12:27:54.085Z,32.56
2018-06-02T12:30:20.425Z,32.26
2018-06-02T12:32:46.719Z,31.81
2018-06-02T12:35:13.049Z,31.16
2018-06-02T12:37:39.342Z,30.47
2018-06-02T12:40:05.630Z,30.24
2018-06-02T12:42:33.089Z,30.94
2018-06-02T12:44:58.274Z,31.16
2018-06-02T12:47:24.559Z,32.61
2018-06-02T12:49:50.897Z,33.93
2018-06-02T12:52:17.223Z,34.56
2018-06-02T12:54:43.515Z,34.88
2018-06-02T12:57:09.819Z,34.12
2018-06-02T12:59:36.119Z,31.83
2018-06-02T13:02:02.417Z,31.71
2018-06-02T13:04:28.762Z,33.13
2018-06-02T13:06:55.064Z,33.31
2018-06-02T13:09:21.397Z,32.99
2018-06-02T13:11:47.684Z,31.17
2018-06-02T13:14:14.031Z,30.07
2018-06-02T13:16:40.338Z,29.60
2018-06-02T13:19:06.632Z,29.54
2018-06-02T13:21:32.936Z,29.76
2018-06-02T13:23:59.229Z,30.39
2018-06-02T13:26:25.874Z,30.48
2018-06-02T13:28:57.408Z,30.06
2018-06-02T13:31:25.682Z,29.51
2018-06-02T13:33:51.977Z,29.30
2018-06-02T13:36:18.273Z,29.30
2018-06-02T13:38:44.581Z,29.20
2018-06-02T13:41:10.869Z,29.22
2018-06-02T13:43:39.303Z,29.21
2018-06-02T13:46:05.562Z,29.23
2018-06-02T13:48:31.831Z,29.12
2018-06-02T13:50:58.130Z,28.93
2018-06-02T13:53:24.434Z,28.95
2018-06-02T13:55:50.734Z,28.89
2018-06-02T13:58:19.788Z,28.85
2018-06-02T14:00:46.188Z,28.74
2018-06-02T14:03:12.495Z,28.27
2018-06-02T14:05:39.214Z,28.49
2018-06-02T14:08:08.411Z,28.31
2018-06-02T14:10:32.336Z,28.43
2018-06-02T14:12:58.949Z,28.41
2018-06-02T14:15:32.062Z,28.32
2018-06-02T14:18:04.078Z,27.98
2018-06-02T14:20:29.171Z,27.97
2018-06-02T14:22:55.468Z,27.87
2018-06-02T14:25:21.799Z,27.94
2018-06-02T14:27:48.072Z,27.78
2018-06-02T14:30:14.406Z,27.70
2018-06-02T14:32:40.708Z,27.56
2018-06-02T14:35:08.899Z,27.49
2018-06-02T14:37:46.092Z,27.41
2018-06-02T14:40:11.074Z,27.26
2018-06-02T14:42:37.371Z,27.20
2018-06-02T14:45:03.674Z,27.15
2018-06-02T14:47:30.014Z,27.17
2018-06-02T14:49:56.306Z,27.10
2018-06-02T14:52:22.615Z,26.89
2018-06-02T14:54:48.909Z,26.80
2018-06-02T14:57:15.197Z,26.75
2018-06-02T14:59:41.488Z,26.88
2018-06-02T15:02:08.003Z,26.76
2018-06-02T15:04:34.300Z,26.63
2018-06-02T15:07:00.629Z,26.63
2018-06-02T15:09:26.926Z,26.68
2018-06-02T15:11:53.292Z,26.72
2018-06-02T15:14:19.624Z,26.74
2018-06-02T15:16:45.916Z,26.67
2018-06-02T15:19:12.231Z,26.50
2018-06-02T15:21:38.534Z,26.40
2018-06-02T15:24:04.863Z,26.32
2018-06-02T15:26:31.178Z,26.11
2018-06-02T15:28:57.483Z,25.86
2018-06-02T15:31:23.896Z,25.73
2018-06-02T15:33:50.121Z,25.69
2018-06-02T15:36:16.419Z,25.76
2018-06-02T15:38:42.706Z,25.80
2018-06-02T15:41:09.006Z,25.85
2018-06-02T15:43:35.296Z,25.98
2018-06-02T15:46:01.588Z,26.10
2018-06-02T15:48:27.880Z,25.08
2018-06-02T15:50:54.176Z,24.17
2018-06-02T15:53:20.474Z,23.50
2018-06-02T15:55:46.807Z,23.20
2018-06-02T15:58:13.097Z,23.33
2018-06-02T16:00:39.395Z,23.41
2018-06-02T16:03:05.728Z,22.99
2018-06-02T16:05:32.138Z,22.70
2018-06-02T16:07:58.430Z,22.46
2018-06-02T16:10:24.724Z,22.06
2018-06-02T16:12:51.107Z,21.85
2018-06-02T16:15:17.387Z,21.73
2018-06-02T16:17:43.663Z,21.60
2018-06-02T16:20:10.006Z,21.43
2018-06-02T16:22:36.265Z,20.96
2018-06-02T16:25:02.583Z,20.70
2018-06-02T16:27:28.884Z,20.56
2018-06-02T16:29:55.220Z,20.55
2018-06-02T16:32:21.545Z,20.55
2018-06-02T16:34:47.869Z,20.41
2018-06-02T16:37:14.167Z,20.31
2018-06-02T16:39:40.479Z,19.92
2018-06-02T16:42:06.775Z,19.74
2018-06-02T16:44:33.077Z,19.60
2018-06-02T16:46:59.390Z,19.41
2018-06-02T16:49:25.687Z,19.26
2018-06-02T16:51:51.996Z,19.11
2018-06-02T16:54:18.285Z,19.20
2018-06-02T16:56:44.578Z,19.29
2018-06-02T16:59:10.875Z,19.61
2018-06-02T17:01:37.159Z,19.63
2018-06-02T17:04:03.459Z,19.63
2018-06-02T17:06:29.758Z,19.51
2018-06-02T17:08:56.047Z,19.59
2018-06-02T17:11:22.409Z,19.69
2018-06-02T17:13:48.707Z,19.70
2018-06-02T17:16:15.045Z,19.89
2018-06-02T17:18:41.344Z,20.01
2018-06-02T17:21:07.638Z,20.08
2018-06-02T17:23:33.971Z,20.02
2018-06-02T17:26:00.262Z,20.05
2018-06-02T17:28:26.561Z,20.06
2018-06-02T17:30:52.848Z,20.13
2018-06-02T17:33:19.140Z,20.19
2018-06-02T17:35:45.444Z,20.24
2018-06-02T17:38:11.769Z,20.28
2018-06-02T17:40:38.063Z,20.27
2018-06-02T17:43:04.383Z,20.24
2018-06-02T17:45:30.677Z,20.01
2018-06-02T17:47:56.969Z,19.92
2018-06-02T17:50:23.299Z,19.90
2018-06-02T17:52:49.621Z,19.97
2018-06-02T17:55:15.916Z,20.02
2018-06-02T17:57:42.228Z,19.93
2018-06-02T18:00:08.520Z,19.90
2018-06-02T18:02:34.827Z,19.96
2018-06-02T18:05:01.119Z,20.05
2018-06-02T18:07:27.413Z,20.07
2018-06-02T18:09:53.695Z,20.07
2018-06-02T18:12:20.035Z,20.05
2018-06-02T18:14:46.336Z,20.04
2018-06-02T18:17:12.625Z,20.11
2018-06-02T18:19:38.929Z,20.22
2018-06-02T18:22:05.224Z,20.33
2018-06-02T18:24:31.519Z,20.42
2018-06-02T18:26:57.855Z,20.55
2018-06-02T18:29:24.142Z,20.66
2018-06-02T18:31:50.437Z,20.73
2018-06-02T18:34:16.738Z,20.82
2018-06-02T18:36:43.952Z,20.92
2018-06-02T18:39:10.242Z,21.00
2018-06-02T18:41:36.581Z,21.09
2018-06-02T18:44:02.868Z,21.19
2018-06-02T18:46:29.155Z,21.26
2018-06-02T18:48:55.467Z,21.34
2018-06-02T18:51:21.771Z,21.39
2018-06-02T18:53:48.095Z,20.87
2018-06-02T18:56:14.361Z,20.47
2018-06-02T18:58:40.653Z,20.32
2018-06-02T19:01:06.993Z,20.30
2018-06-02T19:03:33.332Z,20.19
2018-06-02T19:05:59.601Z,20.05
2018-06-02T19:08:25.905Z,19.87
2018-06-02T19:10:52.275Z,19.75
2018-06-02T19:13:19.477Z,19.64
2018-06-02T19:15:44.985Z,19.54
2018-06-02T19:18:11.277Z,19.45
2018-06-02T19:20:37.581Z,19.38
2018-06-02T19:23:03.877Z,19.26
2018-06-02T19:25:30.163Z,19.14
2018-06-02T19:27:56.459Z,19.08
2018-06-02T19:30:22.783Z,19.06
2018-06-02T19:32:49.075Z,19.01
2018-06-02T19:35:15.375Z,18.93
2018-06-02T19:37:41.665Z,18.99
2018-06-02T19:40:07.962Z,18.92
2018-06-02T19:42:34.250Z,18.93
2018-06-02T19:45:00.543Z,18.92
2018-06-02T19:47:26.878Z,18.88
2018-06-02T19:49:53.205Z,19.01
2018-06-02T19:52:19.484Z,19.15
2018-06-02T19:54:45.772Z,19.11
2018-06-02T19:57:12.102Z,19.01
2018-06-02T19:59:38.387Z,18.95
2018-06-02T20:02:04.679Z,19.00
2018-06-02T20:04:30.970Z,18.94
2018-06-02T20:06:57.285Z,18.95
2018-06-02T20:09:23.580Z,18.96
2018-06-02T20:11:49.873Z,18.90
2018-06-02T20:14:16.193Z,18.83
2018-06-02T20:16:42.499Z,18.85
2018-06-02T20:19:08.921Z,19.02
2018-06-02T20:21:35.169Z,19.05
2018-06-02T20:24:01.470Z,19.11
2018-06-02T20:26:27.771Z,18.99
2018-06-02T20:28:54.059Z,19.01
2018-06-02T20:31:20.350Z,19.05
2018-06-02T20:33:46.717Z,19.06
2018-06-02T20:36:13.090Z,18.99
2018-06-02T20:38:39.335Z,18.88
2018-06-02T20:41:05.657Z,18.82
2018-06-02T20:43:32.010Z,18.76
2018-06-02T20:45:58.429Z,18.93
2018-06-02T20:48:24.733Z,19.09
2018-06-02T20:50:51.025Z,19.03
2018-06-02T20:53:17.393Z,18.89
2018-06-02T20:55:43.657Z,18.86
2018-06-02T20:58:09.963Z,18.75
2018-06-02T21:00:36.266Z,18.70
2018-06-02T21:03:02.558Z,18.69
2018-06-02T21:05:28.859Z,18.69
2018-06-02T21:07:55.207Z,18.72
2018-06-02T21:10:21.490Z,18.79
2018-06-02T21:12:47.798Z,18.76
2018-06-02T21:15:14.108Z,18.74
2018-06-02T21:17:40.440Z,18.69
2018-06-02T21:20:06.749Z,18.50
2018-06-02T21:22:33.132Z,18.52
2018-06-02T21:24:59.437Z,18.53
2018-06-02T21:27:25.753Z,18.57
2018-06-02T21:29:52.062Z,18.41
2018-06-02T21:32:18.383Z,18.32
2018-06-02T21:34:44.695Z,18.23
2018-06-02T21:37:11.010Z,18.10
2018-06-02T21:39:37.315Z,18.06
2018-06-02T21:42:03.663Z,17.95
2018-06-02T21:44:30.006Z,17.89
2018-06-02T21:46:56.332Z,17.89
2018-06-02T21:49:22.756Z,17.96
2018-06-02T21:51:49.093Z,18.14
2018-06-02T21:54:15.363Z,18.14
2018-06-02T21:56:41.672Z,18.13
2018-06-02T21:59:07.977Z,18.13
2018-06-02T22:01:34.328Z,18.29
2018-06-02T22:04:00.714Z,18.29
2018-06-02T22:06:26.981Z,18.34
2018-06-02T22:08:53.326Z,18.34
2018-06-02T22:11:19.621Z,18.33
2018-06-02T22:13:45.923Z,18.11
2018-06-02T22:16:12.229Z,17.96
2018-06-02T22:18:38.543Z,18.03
2018-06-02T22:21:04.924Z,18.20
2018-06-02T22:23:31.259Z,18.08
2018-06-02T22:25:57.610Z,17.99
2018-06-02T22:28:23.917Z,17.88
2018-06-02T22:30:50.298Z,17.97
2018-06-02T22:33:16.725Z,17.85
2018-06-02T22:35:43.091Z,17.74
2018-06-02T22:38:09.430Z,17.61
2018-06-02T22:40:35.762Z,17.47
2018-06-02T22:43:02.108Z,17.36
2018-06-02T22:45:28.445Z,17.32
2018-06-02T22:47:54.792Z,17.29
2018-06-02T22:50:21.100Z,17.21
2018-06-02T22:52:47.408Z,17.20
2018-06-02T22:55:13.717Z,17.28
2018-06-02T22:57:40.026Z,17.24
2018-06-02T23:00:06.362Z,17.19
2018-06-02T23:02:32.671Z,17.20
2018-06-02T23:04:59.017Z,17.18
2018-06-02T23:07:25.327Z,17.14
2018-06-02T23:09:51.635Z,17.01
2018-06-02T23:12:17.948Z,17.00
2018-06-02T23:14:44.259Z,16.95
2018-06-02T23:17:10.574Z,16.82
2018-06-02T23:19:36.886Z,16.82
2018-06-02T23:22:03.223Z,16.82
2018-06-02T23:24:29.531Z,16.74
2018-06-02T23:26:55.844Z,16.73
2018-06-02T23:29:22.155Z,16.75
2018-06-02T23:31:48.461Z,16.72
2018-06-02T23:34:14.766Z,16.76
2018-06-02T23:36:41.083Z,16.74
2018-06-02T23:39:07.387Z,16.68
2018-06-02T23:41:33.690Z,16.75
2018-06-02T23:43:59.989Z,16.74
2018-06-02T23:46:26.347Z,16.68
2018-06-02T23:48:52.653Z,16.69
2018-06-02T23:51:18.953Z,16.79
2018-06-02T23:53:45.261Z,16.75
2018-06-02T23:56:11.606Z,16.69
2018-06-02T23:58:37.909Z,16.55
